sensor_id;sensor_type;location;lat;lon;timestamp;P1;durP1;ratioP1;P2;durP2;ratioP2
17494;SDS011;8864;51.970;4.614;2023-05-10T00:01:40;0.70;;;0.70;;
17494;SDS011;8864;51.970;4.614;2023-05-10T00:04:07;0.60;;;0.60;;
17494;SDS011;8864;51.970;4.614;2023-05-10T00:06:34;0.73;;;0.60;;
17494;SDS011;8864;51.970;4.614;2023-05-10T00:09:01;0.70;;;0.70;;
17494;SDS011;8864;51.970;4.614;2023-05-10T00:11:28;1.10;;;0.85;;
17494;SDS011;8864;51.970;4.614;2023-05-10T00:13:57;0.70;;;0.70;;
17494;SDS011;8864;51.970;4.614;2023-05-10T00:16:23;0.75;;;0.65;;
17494;SDS011;8864;51.970;4.614;2023-05-10T00:18:50;0.90;;;0.70;;
17494;SDS011;8864;51.970;4.614;2023-05-10T00:21:17;0.75;;;0.70;;
17494;SDS011;8864;51.970;4.614;2023-05-10T00:23:44;1.00;;;0.80;;
17494;SDS011;8864;51.970;4.614;2023-05-10T00:26:11;0.82;;;0.80;;
17494;SDS011;8864;51.970;4.614;2023-05-10T00:28:38;0.80;;;0.60;;
17494;SDS011;8864;51.970;4.614;2023-05-10T00:31:06;0.82;;;0.70;;
17494;SDS011;8864;51.970;4.614;2023-05-10T00:33:33;1.05;;;0.60;;
17494;SDS011;8864;51.970;4.614;2023-05-10T00:36:00;1.42;;;0.68;;
17494;SDS011;8864;51.970;4.614;2023-05-10T00:38:27;0.95;;;0.70;;
17494;SDS011;8864;51.970;4.614;2023-05-10T00:40:54;0.50;;;0.50;;
17494;SDS011;8864;51.970;4.614;2023-05-10T00:43:21;0.57;;;0.50;;
17494;SDS011;8864;51.970;4.614;2023-05-10T00:45:47;0.60;;;0.60;;
17494;SDS011;8864;51.970;4.614;2023-05-10T00:48:16;0.68;;;0.50;;
17494;SDS011;8864;51.970;4.614;2023-05-10T00:50:43;0.80;;;0.60;;
17494;SDS011;8864;51.970;4.614;2023-05-10T00:53:10;0.70;;;0.70;;
17494;SDS011;8864;51.970;4.614;2023-05-10T00:55:38;0.55;;;0.50;;
17494;SDS011;8864;51.970;4.614;2023-05-10T00:58:05;0.50;;;0.50;;
17494;SDS011;8864;51.970;4.614;2023-05-10T01:00:32;1.88;;;0.70;;
17494;SDS011;8864;51.970;4.614;2023-05-10T01:02:59;0.77;;;0.60;;
17494;SDS011;8864;51.970;4.614;2023-05-10T01:05:28;0.90;;;0.70;;
17494;SDS011;8864;51.970;4.614;2023-05-10T01:07:55;1.38;;;0.60;;
17494;SDS011;8864;51.970;4.614;2023-05-10T01:10:22;0.90;;;0.60;;
17494;SDS011;8864;51.970;4.614;2023-05-10T01:12:49;1.30;;;0.90;;
17494;SDS011;8864;51.970;4.614;2023-05-10T01:15:16;0.75;;;0.70;;
17494;SDS011;8864;51.970;4.614;2023-05-10T01:17:44;1.05;;;0.68;;
17494;SDS011;8864;51.970;4.614;2023-05-10T01:20:13;1.48;;;1.10;;
17494;SDS011;8864;51.970;4.614;2023-05-10T01:22:48;0.75;;;0.63;;
17494;SDS011;8864;51.970;4.614;2023-05-10T01:25:38;1.70;;;1.10;;
17494;SDS011;8864;51.970;4.614;2023-05-10T01:28:26;1.52;;;0.80;;
17494;SDS011;8864;51.970;4.614;2023-05-10T01:31:22;2.20;;;1.15;;
17494;SDS011;8864;51.970;4.614;2023-05-10T01:34:02;1.58;;;0.98;;
17494;SDS011;8864;51.970;4.614;2023-05-10T01:36:38;1.50;;;0.90;;
17494;SDS011;8864;51.970;4.614;2023-05-10T01:39:11;1.30;;;0.93;;
17494;SDS011;8864;51.970;4.614;2023-05-10T01:41:44;1.33;;;0.90;;
17494;SDS011;8864;51.970;4.614;2023-05-10T01:44:18;0.75;;;0.70;;
17494;SDS011;8864;51.970;4.614;2023-05-10T01:46:51;1.50;;;1.10;;
17494;SDS011;8864;51.970;4.614;2023-05-10T01:49:25;1.20;;;0.90;;
17494;SDS011;8864;51.970;4.614;2023-05-10T01:51:58;1.00;;;0.90;;
17494;SDS011;8864;51.970;4.614;2023-05-10T01:54:29;3.88;;;1.20;;
17494;SDS011;8864;51.970;4.614;2023-05-10T01:57:00;1.80;;;1.02;;
17494;SDS011;8864;51.970;4.614;2023-05-10T01:59:33;1.30;;;0.90;;
17494;SDS011;8864;51.970;4.614;2023-05-10T02:02:04;2.13;;;1.13;;
17494;SDS011;8864;51.970;4.614;2023-05-10T02:04:34;2.38;;;1.25;;
17494;SDS011;8864;51.970;4.614;2023-05-10T02:07:03;1.10;;;0.75;;
17494;SDS011;8864;51.970;4.614;2023-05-10T02:09:32;1.67;;;1.00;;
17494;SDS011;8864;51.970;4.614;2023-05-10T02:12:01;1.95;;;0.93;;
17494;SDS011;8864;51.970;4.614;2023-05-10T02:14:30;1.02;;;0.80;;
17494;SDS011;8864;51.970;4.614;2023-05-10T02:17:00;1.17;;;0.90;;
17494;SDS011;8864;51.970;4.614;2023-05-10T02:19:30;1.10;;;0.80;;
17494;SDS011;8864;51.970;4.614;2023-05-10T02:22:00;3.03;;;1.20;;
17494;SDS011;8864;51.970;4.614;2023-05-10T02:24:29;1.33;;;0.98;;
17494;SDS011;8864;51.970;4.614;2023-05-10T02:26:56;1.27;;;0.95;;
17494;SDS011;8864;51.970;4.614;2023-05-10T02:29:24;1.83;;;0.98;;
17494;SDS011;8864;51.970;4.614;2023-05-10T02:31:53;1.77;;;1.15;;
17494;SDS011;8864;51.970;4.614;2023-05-10T02:34:22;3.40;;;1.02;;
17494;SDS011;8864;51.970;4.614;2023-05-10T02:36:53;2.38;;;1.30;;
17494;SDS011;8864;51.970;4.614;2023-05-10T02:39:21;1.13;;;1.00;;
17494;SDS011;8864;51.970;4.614;2023-05-10T02:41:49;1.52;;;1.10;;
17494;SDS011;8864;51.970;4.614;2023-05-10T02:44:18;1.58;;;1.17;;
17494;SDS011;8864;51.970;4.614;2023-05-10T02:46:46;1.30;;;1.10;;
17494;SDS011;8864;51.970;4.614;2023-05-10T02:49:13;2.53;;;1.30;;
17494;SDS011;8864;51.970;4.614;2023-05-10T02:51:41;2.60;;;1.27;;
17494;SDS011;8864;51.970;4.614;2023-05-10T02:54:15;1.70;;;1.33;;
17494;SDS011;8864;51.970;4.614;2023-05-10T02:56:47;2.30;;;1.30;;
17494;SDS011;8864;51.970;4.614;2023-05-10T02:59:19;2.85;;;1.48;;
17494;SDS011;8864;51.970;4.614;2023-05-10T03:01:46;2.22;;;1.50;;
17494;SDS011;8864;51.970;4.614;2023-05-10T03:04:13;3.60;;;1.40;;
17494;SDS011;8864;51.970;4.614;2023-05-10T03:06:40;1.80;;;1.50;;
17494;SDS011;8864;51.970;4.614;2023-05-10T03:09:07;2.42;;;1.48;;
17494;SDS011;8864;51.970;4.614;2023-05-10T03:11:43;2.10;;;1.58;;
17494;SDS011;8864;51.970;4.614;2023-05-10T03:14:23;2.70;;;1.40;;
17494;SDS011;8864;51.970;4.614;2023-05-10T03:17:03;2.60;;;1.48;;
17494;SDS011;8864;51.970;4.614;2023-05-10T03:19:36;2.50;;;1.90;;
17494;SDS011;8864;51.970;4.614;2023-05-10T03:22:10;3.17;;;1.38;;
17494;SDS011;8864;51.970;4.614;2023-05-10T03:24:39;3.70;;;1.40;;
17494;SDS011;8864;51.970;4.614;2023-05-10T03:27:09;2.42;;;1.58;;
17494;SDS011;8864;51.970;4.614;2023-05-10T03:29:37;2.97;;;1.70;;
17494;SDS011;8864;51.970;4.614;2023-05-10T03:32:05;2.65;;;1.58;;
17494;SDS011;8864;51.970;4.614;2023-05-10T03:34:32;2.08;;;1.40;;
17494;SDS011;8864;51.970;4.614;2023-05-10T03:36:59;2.83;;;2.17;;
17494;SDS011;8864;51.970;4.614;2023-05-10T03:39:25;2.67;;;1.67;;
17494;SDS011;8864;51.970;4.614;2023-05-10T03:41:52;2.67;;;1.58;;
17494;SDS011;8864;51.970;4.614;2023-05-10T03:44:20;3.53;;;2.20;;
17494;SDS011;8864;51.970;4.614;2023-05-10T03:46:47;3.30;;;1.92;;
17494;SDS011;8864;51.970;4.614;2023-05-10T03:49:14;2.85;;;1.90;;
17494;SDS011;8864;51.970;4.614;2023-05-10T03:51:41;2.72;;;2.00;;
17494;SDS011;8864;51.970;4.614;2023-05-10T03:54:08;4.93;;;2.20;;
17494;SDS011;8864;51.970;4.614;2023-05-10T03:56:35;3.25;;;2.00;;
17494;SDS011;8864;51.970;4.614;2023-05-10T03:59:02;3.97;;;1.80;;
17494;SDS011;8864;51.970;4.614;2023-05-10T04:01:33;3.65;;;1.88;;
17494;SDS011;8864;51.970;4.614;2023-05-10T04:04:00;3.65;;;2.10;;
17494;SDS011;8864;51.970;4.614;2023-05-10T04:06:27;4.07;;;1.88;;
17494;SDS011;8864;51.970;4.614;2023-05-10T04:08:54;3.35;;;2.03;;
17494;SDS011;8864;51.970;4.614;2023-05-10T04:11:21;3.17;;;1.88;;
17494;SDS011;8864;51.970;4.614;2023-05-10T04:13:49;4.93;;;2.25;;
17494;SDS011;8864;51.970;4.614;2023-05-10T04:16:16;2.85;;;2.15;;
17494;SDS011;8864;51.970;4.614;2023-05-10T04:18:44;2.70;;;1.83;;
17494;SDS011;8864;51.970;4.614;2023-05-10T04:21:11;4.07;;;2.10;;
17494;SDS011;8864;51.970;4.614;2023-05-10T04:23:38;3.20;;;1.90;;
17494;SDS011;8864;51.970;4.614;2023-05-10T04:26:05;3.40;;;1.85;;
17494;SDS011;8864;51.970;4.614;2023-05-10T04:28:32;3.55;;;1.95;;
17494;SDS011;8864;51.970;4.614;2023-05-10T04:31:02;3.67;;;2.20;;
17494;SDS011;8864;51.970;4.614;2023-05-10T04:33:30;2.50;;;1.70;;
17494;SDS011;8864;51.970;4.614;2023-05-10T04:35:58;3.80;;;2.05;;
17494;SDS011;8864;51.970;4.614;2023-05-10T04:38:25;3.10;;;1.90;;
17494;SDS011;8864;51.970;4.614;2023-05-10T04:40:52;3.80;;;2.00;;
17494;SDS011;8864;51.970;4.614;2023-05-10T04:43:19;5.60;;;2.28;;
17494;SDS011;8864;51.970;4.614;2023-05-10T04:45:46;3.08;;;2.00;;
17494;SDS011;8864;51.970;4.614;2023-05-10T04:48:13;3.85;;;2.28;;
17494;SDS011;8864;51.970;4.614;2023-05-10T04:50:40;3.60;;;1.90;;
17494;SDS011;8864;51.970;4.614;2023-05-10T04:53:08;2.58;;;2.00;;
17494;SDS011;8864;51.970;4.614;2023-05-10T04:55:35;4.05;;;2.38;;
17494;SDS011;8864;51.970;4.614;2023-05-10T04:58:02;3.45;;;2.10;;
17494;SDS011;8864;51.970;4.614;2023-05-10T05:00:29;2.70;;;2.00;;
17494;SDS011;8864;51.970;4.614;2023-05-10T05:02:56;2.50;;;1.90;;
17494;SDS011;8864;51.970;4.614;2023-05-10T05:05:23;2.42;;;1.92;;
17494;SDS011;8864;51.970;4.614;2023-05-10T05:07:50;2.50;;;1.90;;
17494;SDS011;8864;51.970;4.614;2023-05-10T05:10:18;2.85;;;1.83;;
17494;SDS011;8864;51.970;4.614;2023-05-10T05:12:45;5.30;;;1.90;;
17494;SDS011;8864;51.970;4.614;2023-05-10T05:15:12;3.63;;;2.25;;
17494;SDS011;8864;51.970;4.614;2023-05-10T05:17:41;2.75;;;2.00;;
17494;SDS011;8864;51.970;4.614;2023-05-10T05:20:08;3.75;;;2.10;;
17494;SDS011;8864;51.970;4.614;2023-05-10T05:22:36;4.35;;;2.50;;
17494;SDS011;8864;51.970;4.614;2023-05-10T05:25:04;4.00;;;2.28;;
17494;SDS011;8864;51.970;4.614;2023-05-10T05:27:33;2.72;;;1.98;;
17494;SDS011;8864;51.970;4.614;2023-05-10T05:30:00;4.03;;;2.10;;
17494;SDS011;8864;51.970;4.614;2023-05-10T05:32:27;3.50;;;1.98;;
17494;SDS011;8864;51.970;4.614;2023-05-10T05:34:54;3.22;;;2.05;;
17494;SDS011;8864;51.970;4.614;2023-05-10T05:37:21;4.32;;;2.15;;
17494;SDS011;8864;51.970;4.614;2023-05-10T05:39:49;3.45;;;1.95;;
17494;SDS011;8864;51.970;4.614;2023-05-10T05:42:16;2.90;;;2.00;;
17494;SDS011;8864;51.970;4.614;2023-05-10T05:44:45;2.83;;;1.90;;
17494;SDS011;8864;51.970;4.614;2023-05-10T05:47:12;3.42;;;2.00;;
17494;SDS011;8864;51.970;4.614;2023-05-10T05:49:39;3.00;;;2.00;;
17494;SDS011;8864;51.970;4.614;2023-05-10T05:52:06;3.28;;;2.00;;
17494;SDS011;8864;51.970;4.614;2023-05-10T05:54:32;3.50;;;2.17;;
17494;SDS011;8864;51.970;4.614;2023-05-10T05:57:00;2.30;;;1.65;;
17494;SDS011;8864;51.970;4.614;2023-05-10T05:59:27;4.25;;;2.28;;
17494;SDS011;8864;51.970;4.614;2023-05-10T06:01:55;4.80;;;2.65;;
17494;SDS011;8864;51.970;4.614;2023-05-10T06:04:22;4.13;;;2.22;;
17494;SDS011;8864;51.970;4.614;2023-05-10T06:06:49;3.83;;;2.47;;
17494;SDS011;8864;51.970;4.614;2023-05-10T06:09:16;44.65;;;9.02;;
17494;SDS011;8864;51.970;4.614;2023-05-10T06:11:43;18.15;;;5.57;;
17494;SDS011;8864;51.970;4.614;2023-05-10T06:14:10;18.10;;;5.28;;
17494;SDS011;8864;51.970;4.614;2023-05-10T06:16:37;19.27;;;5.15;;
17494;SDS011;8864;51.970;4.614;2023-05-10T06:19:05;24.65;;;5.72;;
17494;SDS011;8864;51.970;4.614;2023-05-10T06:21:32;24.13;;;6.03;;
17494;SDS011;8864;51.970;4.614;2023-05-10T06:23:58;19.08;;;5.10;;
17494;SDS011;8864;51.970;4.614;2023-05-10T06:26:25;15.55;;;4.97;;
17494;SDS011;8864;51.970;4.614;2023-05-10T06:28:52;21.13;;;5.07;;
17494;SDS011;8864;51.970;4.614;2023-05-10T06:31:19;14.43;;;4.40;;
17494;SDS011;8864;51.970;4.614;2023-05-10T06:33:46;15.80;;;4.85;;
17494;SDS011;8864;51.970;4.614;2023-05-10T06:36:14;14.05;;;4.32;;
17494;SDS011;8864;51.970;4.614;2023-05-10T06:38:41;16.40;;;4.05;;
17494;SDS011;8864;51.970;4.614;2023-05-10T06:41:08;14.15;;;4.18;;
17494;SDS011;8864;51.970;4.614;2023-05-10T06:43:35;14.32;;;4.25;;
17494;SDS011;8864;51.970;4.614;2023-05-10T06:46:05;21.25;;;4.72;;
17494;SDS011;8864;51.970;4.614;2023-05-10T06:48:32;15.32;;;3.92;;
17494;SDS011;8864;51.970;4.614;2023-05-10T06:50:59;15.45;;;3.80;;
17494;SDS011;8864;51.970;4.614;2023-05-10T06:53:28;12.52;;;3.63;;
17494;SDS011;8864;51.970;4.614;2023-05-10T06:55:55;8.75;;;2.63;;
17494;SDS011;8864;51.970;4.614;2023-05-10T06:58:22;8.48;;;2.63;;
17494;SDS011;8864;51.970;4.614;2023-05-10T07:00:49;8.13;;;2.40;;
17494;SDS011;8864;51.970;4.614;2023-05-10T07:03:16;10.27;;;2.33;;
17494;SDS011;8864;51.970;4.614;2023-05-10T07:05:42;6.82;;;2.60;;
17494;SDS011;8864;51.970;4.614;2023-05-10T07:08:09;7.95;;;3.00;;
17494;SDS011;8864;51.970;4.614;2023-05-10T07:10:38;9.80;;;2.15;;
17494;SDS011;8864;51.970;4.614;2023-05-10T07:13:04;5.25;;;2.20;;
17494;SDS011;8864;51.970;4.614;2023-05-10T07:15:31;11.00;;;2.45;;
17494;SDS011;8864;51.970;4.614;2023-05-10T07:17:58;10.60;;;2.28;;
17494;SDS011;8864;51.970;4.614;2023-05-10T07:20:25;3.45;;;1.90;;
17494;SDS011;8864;51.970;4.614;2023-05-10T07:22:52;7.15;;;1.73;;
17494;SDS011;8864;51.970;4.614;2023-05-10T07:25:19;7.35;;;2.03;;
17494;SDS011;8864;51.970;4.614;2023-05-10T07:27:47;7.40;;;2.35;;
17494;SDS011;8864;51.970;4.614;2023-05-10T07:30:14;5.05;;;2.05;;
17494;SDS011;8864;51.970;4.614;2023-05-10T07:32:41;5.63;;;2.10;;
17494;SDS011;8864;51.970;4.614;2023-05-10T07:35:08;6.18;;;1.90;;
17494;SDS011;8864;51.970;4.614;2023-05-10T07:37:35;3.90;;;1.85;;
17494;SDS011;8864;51.970;4.614;2023-05-10T07:40:02;4.18;;;1.98;;
17494;SDS011;8864;51.970;4.614;2023-05-10T07:42:29;3.03;;;1.63;;
17494;SDS011;8864;51.970;4.614;2023-05-10T07:44:58;5.50;;;1.95;;
17494;SDS011;8864;51.970;4.614;2023-05-10T07:47:25;3.80;;;1.80;;
17494;SDS011;8864;51.970;4.614;2023-05-10T07:49:52;6.20;;;1.65;;
17494;SDS011;8864;51.970;4.614;2023-05-10T07:52:18;2.95;;;1.60;;
17494;SDS011;8864;51.970;4.614;2023-05-10T07:54:46;2.42;;;1.67;;
17494;SDS011;8864;51.970;4.614;2023-05-10T07:57:12;5.28;;;2.10;;
17494;SDS011;8864;51.970;4.614;2023-05-10T07:59:42;3.00;;;1.80;;
17494;SDS011;8864;51.970;4.614;2023-05-10T08:02:11;4.88;;;1.73;;
17494;SDS011;8864;51.970;4.614;2023-05-10T08:04:38;3.70;;;1.80;;
17494;SDS011;8864;51.970;4.614;2023-05-10T08:07:05;4.53;;;1.80;;
17494;SDS011;8864;51.970;4.614;2023-05-10T08:09:32;3.08;;;1.70;;
17494;SDS011;8864;51.970;4.614;2023-05-10T08:11:59;2.50;;;1.70;;
17494;SDS011;8864;51.970;4.614;2023-05-10T08:14:27;6.75;;;2.00;;
17494;SDS011;8864;51.970;4.614;2023-05-10T08:16:54;2.55;;;1.52;;
17494;SDS011;8864;51.970;4.614;2023-05-10T08:19:23;3.88;;;1.63;;
17494;SDS011;8864;51.970;4.614;2023-05-10T08:21:50;3.50;;;1.80;;
17494;SDS011;8864;51.970;4.614;2023-05-10T08:24:17;5.22;;;1.63;;
17494;SDS011;8864;51.970;4.614;2023-05-10T08:26:44;3.88;;;2.13;;
17494;SDS011;8864;51.970;4.614;2023-05-10T08:29:11;4.20;;;1.90;;
17494;SDS011;8864;51.970;4.614;2023-05-10T08:31:38;6.07;;;2.15;;
17494;SDS011;8864;51.970;4.614;2023-05-10T08:34:05;2.88;;;2.20;;
17494;SDS011;8864;51.970;4.614;2023-05-10T08:36:33;3.90;;;2.20;;
17494;SDS011;8864;51.970;4.614;2023-05-10T08:39:00;3.10;;;1.92;;
17494;SDS011;8864;51.970;4.614;2023-05-10T08:41:27;4.32;;;1.98;;
17494;SDS011;8864;51.970;4.614;2023-05-10T08:43:55;6.45;;;1.65;;
17494;SDS011;8864;51.970;4.614;2023-05-10T08:46:22;4.05;;;2.08;;
17494;SDS011;8864;51.970;4.614;2023-05-10T08:48:50;4.38;;;1.55;;
17494;SDS011;8864;51.970;4.614;2023-05-10T08:51:18;5.88;;;1.77;;
17494;SDS011;8864;51.970;4.614;2023-05-10T08:53:50;5.07;;;1.70;;
17494;SDS011;8864;51.970;4.614;2023-05-10T08:56:17;5.97;;;1.80;;
17494;SDS011;8864;51.970;4.614;2023-05-10T08:58:44;7.57;;;1.85;;
17494;SDS011;8864;51.970;4.614;2023-05-10T09:01:12;6.88;;;1.45;;
17494;SDS011;8864;51.970;4.614;2023-05-10T09:03:41;4.53;;;1.30;;
17494;SDS011;8864;51.970;4.614;2023-05-10T09:06:09;2.38;;;1.50;;
17494;SDS011;8864;51.970;4.614;2023-05-10T09:08:38;2.45;;;1.17;;
17494;SDS011;8864;51.970;4.614;2023-05-10T09:11:07;5.05;;;1.30;;
17494;SDS011;8864;51.970;4.614;2023-05-10T09:13:35;2.70;;;1.40;;
17494;SDS011;8864;51.970;4.614;2023-05-10T09:16:02;3.13;;;1.10;;
17494;SDS011;8864;51.970;4.614;2023-05-10T09:18:30;6.68;;;1.33;;
17494;SDS011;8864;51.970;4.614;2023-05-10T09:20:57;2.55;;;1.30;;
17494;SDS011;8864;51.970;4.614;2023-05-10T09:23:24;5.45;;;1.48;;
17494;SDS011;8864;51.970;4.614;2023-05-10T09:26:03;1.90;;;1.13;;
17494;SDS011;8864;51.970;4.614;2023-05-10T09:28:49;1.85;;;1.00;;
17494;SDS011;8864;51.970;4.614;2023-05-10T09:31:17;3.17;;;1.10;;
17494;SDS011;8864;51.970;4.614;2023-05-10T09:33:44;2.72;;;1.20;;
17494;SDS011;8864;51.970;4.614;2023-05-10T09:36:12;5.32;;;1.27;;
17494;SDS011;8864;51.970;4.614;2023-05-10T09:38:46;3.38;;;1.33;;
17494;SDS011;8864;51.970;4.614;2023-05-10T09:41:17;7.00;;;1.25;;
17494;SDS011;8864;51.970;4.614;2023-05-10T09:43:46;2.55;;;0.95;;
17494;SDS011;8864;51.970;4.614;2023-05-10T09:46:13;2.13;;;1.10;;
17494;SDS011;8864;51.970;4.614;2023-05-10T09:48:41;4.22;;;1.20;;
17494;SDS011;8864;51.970;4.614;2023-05-10T09:51:10;6.68;;;1.10;;
17494;SDS011;8864;51.970;4.614;2023-05-10T09:53:37;4.65;;;1.50;;
17494;SDS011;8864;51.970;4.614;2023-05-10T09:56:04;1.30;;;1.10;;
17494;SDS011;8864;51.970;4.614;2023-05-10T09:58:31;5.05;;;1.38;;
17494;SDS011;8864;51.970;4.614;2023-05-10T10:01:03;1.40;;;1.02;;
17494;SDS011;8864;51.970;4.614;2023-05-10T10:03:30;5.65;;;1.52;;
17494;SDS011;8864;51.970;4.614;2023-05-10T10:05:57;3.92;;;1.33;;
17494;SDS011;8864;51.970;4.614;2023-05-10T10:08:24;3.65;;;1.45;;
17494;SDS011;8864;51.970;4.614;2023-05-10T10:10:51;2.80;;;1.15;;
17494;SDS011;8864;51.970;4.614;2023-05-10T10:13:18;4.95;;;1.45;;
17494;SDS011;8864;51.970;4.614;2023-05-10T10:15:45;1.83;;;1.40;;
17494;SDS011;8864;51.970;4.614;2023-05-10T10:18:17;2.55;;;1.63;;
17494;SDS011;8864;51.970;4.614;2023-05-10T10:20:48;3.60;;;1.50;;
17494;SDS011;8864;51.970;4.614;2023-05-10T10:23:15;2.90;;;1.60;;
17494;SDS011;8864;51.970;4.614;2023-05-10T10:25:42;3.03;;;1.63;;
17494;SDS011;8864;51.970;4.614;2023-05-10T10:28:16;3.05;;;1.65;;
17494;SDS011;8864;51.970;4.614;2023-05-10T10:30:50;2.03;;;1.50;;
17494;SDS011;8864;51.970;4.614;2023-05-10T10:36:18;6.28;;;1.63;;
17494;SDS011;8864;51.970;4.614;2023-05-10T10:38:58;4.25;;;1.75;;
17494;SDS011;8864;51.970;4.614;2023-05-10T10:41:28;3.50;;;1.85;;
17494;SDS011;8864;51.970;4.614;2023-05-10T10:46:59;3.22;;;1.95;;
17494;SDS011;8864;51.970;4.614;2023-05-10T10:49:37;4.50;;;1.95;;
17494;SDS011;8864;51.970;4.614;2023-05-10T10:55:00;2.55;;;1.40;;
17494;SDS011;8864;51.970;4.614;2023-05-10T10:57:31;5.47;;;1.73;;
17494;SDS011;8864;51.970;4.614;2023-05-10T11:02:49;3.63;;;1.80;;
17494;SDS011;8864;51.970;4.614;2023-05-10T11:05:34;3.25;;;1.67;;
17494;SDS011;8864;51.970;4.614;2023-05-10T11:08:11;3.67;;;1.80;;
17494;SDS011;8864;51.970;4.614;2023-05-10T11:10:49;2.97;;;1.90;;
17494;SDS011;8864;51.970;4.614;2023-05-10T11:13:26;3.75;;;1.98;;
17494;SDS011;8864;51.970;4.614;2023-05-10T11:15:55;4.35;;;2.00;;
17494;SDS011;8864;51.970;4.614;2023-05-10T11:18:24;3.40;;;1.83;;
17494;SDS011;8864;51.970;4.614;2023-05-10T11:20:52;4.13;;;1.90;;
17494;SDS011;8864;51.970;4.614;2023-05-10T11:23:23;2.97;;;1.60;;
17494;SDS011;8864;51.970;4.614;2023-05-10T11:25:55;4.97;;;2.03;;
17494;SDS011;8864;51.970;4.614;2023-05-10T11:28:22;3.53;;;1.50;;
17494;SDS011;8864;51.970;4.614;2023-05-10T11:30:50;4.60;;;2.00;;
17494;SDS011;8864;51.970;4.614;2023-05-10T11:33:17;2.85;;;1.60;;
17494;SDS011;8864;51.970;4.614;2023-05-10T11:35:45;2.72;;;1.55;;
17494;SDS011;8864;51.970;4.614;2023-05-10T11:38:13;3.15;;;1.63;;
17494;SDS011;8864;51.970;4.614;2023-05-10T11:40:41;2.53;;;1.65;;
17494;SDS011;8864;51.970;4.614;2023-05-10T11:43:09;3.63;;;1.80;;
17494;SDS011;8864;51.970;4.614;2023-05-10T11:45:37;2.42;;;1.60;;
17494;SDS011;8864;51.970;4.614;2023-05-10T11:48:04;3.00;;;1.48;;
17494;SDS011;8864;51.970;4.614;2023-05-10T11:50:31;1.92;;;1.33;;
17494;SDS011;8864;51.970;4.614;2023-05-10T11:52:58;3.28;;;1.73;;
17494;SDS011;8864;51.970;4.614;2023-05-10T11:55:26;3.65;;;1.73;;
17494;SDS011;8864;51.970;4.614;2023-05-10T11:57:59;2.38;;;1.50;;
17494;SDS011;8864;51.970;4.614;2023-05-10T12:00:27;3.15;;;1.60;;
17494;SDS011;8864;51.970;4.614;2023-05-10T12:02:55;3.78;;;1.80;;
17494;SDS011;8864;51.970;4.614;2023-05-10T12:05:23;5.43;;;1.58;;
17494;SDS011;8864;51.970;4.614;2023-05-10T12:07:50;3.63;;;1.80;;
17494;SDS011;8864;51.970;4.614;2023-05-10T12:10:17;4.78;;;1.83;;
17494;SDS011;8864;51.970;4.614;2023-05-10T12:12:52;2.70;;;1.50;;
17494;SDS011;8864;51.970;4.614;2023-05-10T12:15:21;4.60;;;1.88;;
17494;SDS011;8864;51.970;4.614;2023-05-10T12:17:49;2.53;;;1.48;;
17494;SDS011;8864;51.970;4.614;2023-05-10T12:20:17;3.22;;;1.65;;
17494;SDS011;8864;51.970;4.614;2023-05-10T12:22:49;1.60;;;1.27;;
17494;SDS011;8864;51.970;4.614;2023-05-10T12:25:17;2.75;;;1.60;;
17494;SDS011;8864;51.970;4.614;2023-05-10T12:27:50;5.47;;;1.70;;
17494;SDS011;8864;51.970;4.614;2023-05-10T12:30:19;3.55;;;1.63;;
17494;SDS011;8864;51.970;4.614;2023-05-10T12:32:48;3.42;;;1.42;;
17494;SDS011;8864;51.970;4.614;2023-05-10T12:35:15;8.40;;;1.50;;
17494;SDS011;8864;51.970;4.614;2023-05-10T12:37:45;5.53;;;1.50;;
17494;SDS011;8864;51.970;4.614;2023-05-10T12:40:12;6.10;;;2.08;;
17494;SDS011;8864;51.970;4.614;2023-05-10T12:42:39;11.65;;;2.35;;
17494;SDS011;8864;51.970;4.614;2023-05-10T12:45:07;5.75;;;1.70;;
17494;SDS011;8864;51.970;4.614;2023-05-10T12:47:36;4.18;;;1.90;;
17494;SDS011;8864;51.970;4.614;2023-05-10T12:50:04;3.40;;;1.85;;
17494;SDS011;8864;51.970;4.614;2023-05-10T12:52:32;5.82;;;1.67;;
17494;SDS011;8864;51.970;4.614;2023-05-10T12:54:59;2.47;;;1.67;;
17494;SDS011;8864;51.970;4.614;2023-05-10T12:57:26;4.10;;;1.67;;
17494;SDS011;8864;51.970;4.614;2023-05-10T12:59:53;4.85;;;1.95;;
17494;SDS011;8864;51.970;4.614;2023-05-10T13:02:20;4.22;;;1.50;;
17494;SDS011;8864;51.970;4.614;2023-05-10T13:04:49;3.65;;;1.67;;
17494;SDS011;8864;51.970;4.614;2023-05-10T13:07:17;4.53;;;2.00;;
17494;SDS011;8864;51.970;4.614;2023-05-10T13:09:44;3.75;;;1.80;;
17494;SDS011;8864;51.970;4.614;2023-05-10T13:12:11;4.28;;;1.80;;
17494;SDS011;8864;51.970;4.614;2023-05-10T13:14:37;3.92;;;1.50;;
17494;SDS011;8864;51.970;4.614;2023-05-10T13:17:05;5.68;;;2.15;;
17494;SDS011;8864;51.970;4.614;2023-05-10T13:19:33;3.53;;;1.73;;
17494;SDS011;8864;51.970;4.614;2023-05-10T13:22:01;4.03;;;1.70;;
17494;SDS011;8864;51.970;4.614;2023-05-10T13:24:28;4.38;;;1.65;;
17494;SDS011;8864;51.970;4.614;2023-05-10T13:26:55;4.90;;;1.75;;
17494;SDS011;8864;51.970;4.614;2023-05-10T13:29:22;3.88;;;1.33;;
17494;SDS011;8864;51.970;4.614;2023-05-10T13:31:49;3.70;;;1.98;;
17494;SDS011;8864;51.970;4.614;2023-05-10T13:34:16;3.22;;;1.50;;
17494;SDS011;8864;51.970;4.614;2023-05-10T13:36:45;3.13;;;1.65;;
17494;SDS011;8864;51.970;4.614;2023-05-10T13:39:14;4.10;;;1.30;;
17494;SDS011;8864;51.970;4.614;2023-05-10T13:41:41;3.05;;;1.30;;
17494;SDS011;8864;51.970;4.614;2023-05-10T13:44:08;2.53;;;1.40;;
17494;SDS011;8864;51.970;4.614;2023-05-10T13:46:36;5.03;;;1.35;;
17494;SDS011;8864;51.970;4.614;2023-05-10T13:49:03;3.05;;;1.42;;
17494;SDS011;8864;51.970;4.614;2023-05-10T13:51:30;4.05;;;1.48;;
17494;SDS011;8864;51.970;4.614;2023-05-10T13:53:57;3.42;;;1.40;;
17494;SDS011;8864;51.970;4.614;2023-05-10T13:56:26;4.00;;;1.40;;
17494;SDS011;8864;51.970;4.614;2023-05-10T13:58:53;3.17;;;1.30;;
17494;SDS011;8864;51.970;4.614;2023-05-10T14:01:20;3.75;;;1.60;;
17494;SDS011;8864;51.970;4.614;2023-05-10T14:03:47;4.25;;;1.25;;
17494;SDS011;8864;51.970;4.614;2023-05-10T14:06:14;2.00;;;1.10;;
17494;SDS011;8864;51.970;4.614;2023-05-10T14:08:41;3.45;;;1.73;;
17494;SDS011;8864;51.970;4.614;2023-05-10T14:11:08;2.80;;;1.33;;
17494;SDS011;8864;51.970;4.614;2023-05-10T14:13:36;4.10;;;1.60;;
17494;SDS011;8864;51.970;4.614;2023-05-10T14:16:03;3.42;;;1.15;;
17494;SDS011;8864;51.970;4.614;2023-05-10T14:18:31;2.72;;;1.27;;
17494;SDS011;8864;51.970;4.614;2023-05-10T14:20:58;4.32;;;1.40;;
17494;SDS011;8864;51.970;4.614;2023-05-10T14:23:25;5.80;;;1.30;;
17494;SDS011;8864;51.970;4.614;2023-05-10T14:25:53;4.18;;;1.30;;
17494;SDS011;8864;51.970;4.614;2023-05-10T14:28:20;3.03;;;1.30;;
17494;SDS011;8864;51.970;4.614;2023-05-10T14:30:50;3.13;;;1.17;;
17494;SDS011;8864;51.970;4.614;2023-05-10T14:33:17;4.03;;;1.52;;
17494;SDS011;8864;51.970;4.614;2023-05-10T14:35:44;3.05;;;1.13;;
17494;SDS011;8864;51.970;4.614;2023-05-10T14:38:12;2.63;;;1.10;;
17494;SDS011;8864;51.970;4.614;2023-05-10T14:40:39;2.33;;;1.10;;
17494;SDS011;8864;51.970;4.614;2023-05-10T14:43:06;4.68;;;1.15;;
17494;SDS011;8864;51.970;4.614;2023-05-10T14:45:33;1.83;;;1.20;;
17494;SDS011;8864;51.970;4.614;2023-05-10T14:48:01;4.20;;;1.50;;
17494;SDS011;8864;51.970;4.614;2023-05-10T14:50:29;5.05;;;1.45;;
17494;SDS011;8864;51.970;4.614;2023-05-10T14:52:56;7.10;;;1.45;;
17494;SDS011;8864;51.970;4.614;2023-05-10T14:55:23;9.77;;;1.67;;
17494;SDS011;8864;51.970;4.614;2023-05-10T14:57:50;4.15;;;1.70;;
17494;SDS011;8864;51.970;4.614;2023-05-10T15:00:17;3.28;;;1.60;;
17494;SDS011;8864;51.970;4.614;2023-05-10T15:02:45;4.75;;;1.75;;
17494;SDS011;8864;51.970;4.614;2023-05-10T15:05:14;3.63;;;1.60;;
17494;SDS011;8864;51.970;4.614;2023-05-10T15:07:41;3.92;;;1.60;;
17494;SDS011;8864;51.970;4.614;2023-05-10T15:10:09;7.40;;;1.48;;
17494;SDS011;8864;51.970;4.614;2023-05-10T15:12:36;5.15;;;1.98;;
17494;SDS011;8864;51.970;4.614;2023-05-10T15:15:03;5.65;;;1.70;;
17494;SDS011;8864;51.970;4.614;2023-05-10T15:17:32;5.20;;;1.92;;
17494;SDS011;8864;51.970;4.614;2023-05-10T15:19:59;2.97;;;1.85;;